createdAt,value
2023-04-21T00:00:30.794Z,6.21
2023-04-21T00:02:59.173Z,6.29
2023-04-21T00:05:29.131Z,6.28
2023-04-21T00:07:57.464Z,6.23
2023-04-21T00:10:25.820Z,6.23
2023-04-21T00:12:54.011Z,6.29
2023-04-21T00:15:22.196Z,6.24
2023-04-21T00:17:50.642Z,6.17
2023-04-21T00:20:19.192Z,6.26
2023-04-21T00:22:50.472Z,6.26
2023-04-21T00:25:24.885Z,6.17
2023-04-21T00:27:53.974Z,6.17
2023-04-21T00:30:22.309Z,6.08
2023-04-21T00:32:50.540Z,6.10
2023-04-21T00:35:18.816Z,6.01
2023-04-21T00:37:50.172Z,5.43
2023-04-21T00:40:18.482Z,5.80
2023-04-21T00:42:46.671Z,5.75
2023-04-21T00:45:15.915Z,5.67
2023-04-21T00:47:44.430Z,5.62
2023-04-21T00:50:13.862Z,5.49
2023-04-21T00:52:43.833Z,5.58
2023-04-21T00:55:14.013Z,5.46
2023-04-21T00:57:43.848Z,5.47
2023-04-21T01:00:13.836Z,5.66
2023-04-21T01:02:42.626Z,5.63
2023-04-21T01:05:12.173Z,5.58
2023-04-21T01:07:40.552Z,5.49
2023-04-21T01:10:10.183Z,5.42
2023-04-21T01:12:45.930Z,5.35
2023-04-21T01:15:15.820Z,5.43
2023-04-21T01:17:45.186Z,5.31
2023-04-21T01:20:16.227Z,5.32
2023-04-21T01:22:46.917Z,5.21
2023-04-21T01:25:17.593Z,5.36
2023-04-21T01:27:45.982Z,5.32
2023-04-21T01:30:14.448Z,5.35
2023-04-21T01:32:42.716Z,5.35
2023-04-21T01:35:11.649Z,5.26
2023-04-21T01:37:40.852Z,5.34
2023-04-21T01:40:11.797Z,5.36
2023-04-21T01:42:42.677Z,5.47
2023-04-21T01:45:12.227Z,5.36
2023-04-21T01:47:40.818Z,5.24
2023-04-21T01:50:10.719Z,5.28
2023-04-21T01:52:38.905Z,5.41
2023-04-21T01:55:08.278Z,5.41
2023-04-21T01:57:37.815Z,5.48
2023-04-21T02:00:09.246Z,5.33
2023-04-21T02:02:43.664Z,5.39
2023-04-21T02:05:14.509Z,5.31
2023-04-21T02:07:43.050Z,5.56
2023-04-21T02:10:13.778Z,5.38
2023-04-21T02:12:45.838Z,5.44
2023-04-21T02:15:14.158Z,5.52
2023-04-21T02:17:42.934Z,5.39
2023-04-21T02:20:13.353Z,5.37
2023-04-21T02:22:41.673Z,5.56
2023-04-21T02:25:10.739Z,5.49
2023-04-21T02:27:40.352Z,5.43
2023-04-21T02:30:11.311Z,5.41
2023-04-21T02:32:39.999Z,5.51
2023-04-21T02:35:09.081Z,5.44
2023-04-21T02:37:37.315Z,5.40
2023-04-21T02:40:07.280Z,5.46
2023-04-21T02:42:35.739Z,5.44
2023-04-21T02:45:04.213Z,5.48
2023-04-21T02:47:33.790Z,5.45
2023-04-21T02:50:02.016Z,5.44
2023-04-21T02:52:30.225Z,5.47
2023-04-21T02:54:59.136Z,5.49
2023-04-21T02:57:27.290Z,5.55
2023-04-21T02:59:55.526Z,5.63
2023-04-21T03:02:24.289Z,5.62
2023-04-21T03:04:54.069Z,5.61
2023-04-21T03:07:22.276Z,5.55
2023-04-21T03:09:50.605Z,5.61
2023-04-21T03:12:18.849Z,5.53
2023-04-21T03:14:47.195Z,5.57
2023-04-21T03:17:15.423Z,5.64
2023-04-21T03:19:43.620Z,5.69
2023-04-21T03:22:14.267Z,5.71
2023-04-21T03:24:42.876Z,5.67
2023-04-21T03:27:11.632Z,5.69
2023-04-21T03:29:40.248Z,5.59
2023-04-21T03:32:08.588Z,5.71
2023-04-21T03:34:37.218Z,5.68
2023-04-21T03:37:06.649Z,5.73
2023-04-21T03:39:36.202Z,5.75
2023-04-21T03:42:05.811Z,5.75
2023-04-21T03:44:34.161Z,5.66
2023-04-21T03:47:27.336Z,5.56
2023-04-21T03:49:55.586Z,5.67
2023-04-21T03:52:23.902Z,5.52
2023-04-21T03:54:53.452Z,5.34
2023-04-21T03:57:21.677Z,5.32
2023-04-21T03:59:49.918Z,5.43
2023-04-21T04:02:18.165Z,5.42
2023-04-21T04:04:47.603Z,5.38
2023-04-21T04:07:17.595Z,5.54
2023-04-21T04:09:46.547Z,5.46
2023-04-21T04:12:21.512Z,5.45
2023-04-21T04:14:50.232Z,6.12
2023-04-21T04:17:18.463Z,5.51
2023-04-21T04:19:46.641Z,5.56
2023-04-21T04:22:14.900Z,5.57
2023-04-21T04:24:45.162Z,5.61
2023-04-21T04:27:15.070Z,5.42
2023-04-21T04:29:43.985Z,5.33
2023-04-21T04:32:12.162Z,5.30
2023-04-21T04:34:40.860Z,5.28
2023-04-21T04:37:11.335Z,5.23
2023-04-21T04:39:39.609Z,5.12
2023-04-21T04:42:10.115Z,5.20
2023-04-21T04:44:41.569Z,5.14
2023-04-21T04:47:09.798Z,5.10
2023-04-21T04:49:38.227Z,5.01
2023-04-21T04:52:07.061Z,5.03
2023-04-21T04:54:35.454Z,5.05
2023-04-21T04:57:03.779Z,3.94
2023-04-21T04:59:32.164Z,5.13
2023-04-21T05:02:01.807Z,4.97
2023-04-21T05:04:30.213Z,4.99
2023-04-21T05:06:58.553Z,4.90
2023-04-21T05:09:26.756Z,5.18
2023-04-21T05:11:55.498Z,5.28
2023-04-21T05:14:23.696Z,5.18
2023-04-21T05:16:51.886Z,5.25
2023-04-21T05:19:21.392Z,5.27
2023-04-21T05:21:49.586Z,5.30
2023-04-21T05:24:23.163Z,5.48
2023-04-21T05:26:51.384Z,5.35
2023-04-21T05:29:19.582Z,5.46
2023-04-21T05:31:47.940Z,5.50
2023-04-21T05:34:16.264Z,5.57
2023-04-21T05:36:47.385Z,5.60
2023-04-21T05:39:16.355Z,5.64
2023-04-21T05:41:44.762Z,5.68
2023-04-21T05:44:13.156Z,5.69
2023-04-21T05:46:41.417Z,5.82
2023-04-21T05:49:09.664Z,4.63
2023-04-21T05:51:37.870Z,5.74
2023-04-21T05:54:07.540Z,5.73
2023-04-21T05:56:35.823Z,5.80
2023-04-21T05:59:04.007Z,5.82
2023-04-21T06:01:32.205Z,5.91
2023-04-21T06:04:00.593Z,5.66
2023-04-21T06:06:29.095Z,5.87
2023-04-21T06:08:57.345Z,5.99
2023-04-21T06:11:27.176Z,5.90
2023-04-21T06:13:58.450Z,6.26
2023-04-21T06:16:26.978Z,6.43
2023-04-21T06:18:55.318Z,6.50
2023-04-21T06:21:23.550Z,6.19
2023-04-21T06:23:51.792Z,6.88
2023-04-21T06:26:20.172Z,6.94
2023-04-21T06:28:49.755Z,7.26
2023-04-21T06:31:19.174Z,7.27
2023-04-21T06:33:47.444Z,7.38
2023-04-21T06:36:23.049Z,7.51
2023-04-21T06:38:51.277Z,7.61
2023-04-21T06:41:19.714Z,7.80
2023-04-21T06:43:49.514Z,7.75
2023-04-21T06:46:18.371Z,7.85
2023-04-21T06:48:46.724Z,7.70
2023-04-21T06:51:14.926Z,7.91
2023-04-21T06:53:43.316Z,8.15
2023-04-21T06:56:11.779Z,8.02
2023-04-21T06:58:40.017Z,8.09
2023-04-21T07:01:09.603Z,8.34
2023-04-21T07:03:37.998Z,8.34
2023-04-21T07:06:06.986Z,8.47
2023-04-21T07:08:35.148Z,8.45
2023-04-21T07:11:03.548Z,8.55
2023-04-21T07:13:31.852Z,8.62
2023-04-21T07:16:00.154Z,8.71
2023-04-21T07:18:29.676Z,8.74
2023-04-21T07:20:57.933Z,8.72
2023-04-21T07:23:26.239Z,8.79
2023-04-21T07:25:54.517Z,8.97
2023-04-21T07:28:22.745Z,9.16
2023-04-21T07:30:51.177Z,9.27
2023-04-21T07:33:19.455Z,9.25
2023-04-21T07:35:49.178Z,9.17
2023-04-21T07:38:17.494Z,9.23
2023-04-21T07:40:45.950Z,9.30
2023-04-21T07:43:14.234Z,9.38
2023-04-21T07:45:42.493Z,9.72
2023-04-21T07:48:11.848Z,9.79
2023-04-21T07:50:40.277Z,9.98
2023-04-21T07:53:09.827Z,10.06
2023-04-21T07:55:38.056Z,10.29
2023-04-21T07:58:06.648Z,9.85
2023-04-21T08:00:35.150Z,10.30
2023-04-21T08:03:03.480Z,10.30
2023-04-21T08:05:35.747Z,10.40
2023-04-21T08:08:07.319Z,10.78
2023-04-21T08:10:37.098Z,10.77
2023-04-21T08:13:06.397Z,10.49
2023-04-21T08:15:35.214Z,10.25
2023-04-21T08:18:03.450Z,10.80
2023-04-21T08:20:32.171Z,11.15
2023-04-21T08:23:00.575Z,11.28
2023-04-21T08:25:28.816Z,11.21
2023-04-21T08:27:58.365Z,11.34
2023-04-21T08:30:28.824Z,11.55
2023-04-21T08:32:57.240Z,11.72
2023-04-21T08:35:25.951Z,11.58
2023-04-21T08:37:54.161Z,11.93
2023-04-21T08:40:23.905Z,11.96
2023-04-21T08:42:52.155Z,12.15
2023-04-21T08:45:22.100Z,12.45
2023-04-21T08:47:51.014Z,12.60
2023-04-21T08:50:19.237Z,12.54
2023-04-21T08:52:55.715Z,12.56
2023-04-21T08:55:29.202Z,12.36
2023-04-21T08:57:57.621Z,12.23
2023-04-21T09:00:27.316Z,12.24
2023-04-21T09:03:01.412Z,12.04
2023-04-21T09:05:32.991Z,12.15
2023-04-21T09:08:12.618Z,12.35
2023-04-21T09:10:49.223Z,12.34
2023-04-21T09:13:18.981Z,12.58
2023-04-21T09:15:52.228Z,12.87
2023-04-21T09:18:23.123Z,12.80
2023-04-21T09:20:53.836Z,12.82
2023-04-21T09:23:22.661Z,12.86
2023-04-21T09:25:50.945Z,12.87
2023-04-21T09:28:19.138Z,12.86
2023-04-21T09:30:49.080Z,12.73
2023-04-21T09:33:27.980Z,12.55
2023-04-21T09:36:03.965Z,12.74
2023-04-21T09:38:32.591Z,12.90
2023-04-21T09:41:04.146Z,12.78
2023-04-21T09:43:34.518Z,12.90
2023-04-21T09:46:07.218Z,12.74
2023-04-21T09:48:37.234Z,12.85
2023-04-21T09:53:41.836Z,12.97
2023-04-21T09:56:14.134Z,12.96
2023-04-21T09:58:47.954Z,13.19
2023-04-21T10:04:10.824Z,13.49
2023-04-21T10:06:39.364Z,13.55
2023-04-21T10:09:19.897Z,13.33
2023-04-21T10:11:49.451Z,13.79
2023-04-21T10:14:17.952Z,13.77
2023-04-21T10:16:57.972Z,14.05
2023-04-21T10:19:28.764Z,14.04
2023-04-21T10:21:58.108Z,14.19
2023-04-21T10:24:30.850Z,14.29
2023-04-21T10:27:01.722Z,14.45
2023-04-21T10:29:43.654Z,14.30
2023-04-21T10:32:32.660Z,14.23
2023-04-21T10:35:00.887Z,14.28
2023-04-21T10:37:32.706Z,14.26
2023-04-21T10:40:00.961Z,14.27
2023-04-21T10:42:36.795Z,14.26
2023-04-21T10:45:13.476Z,14.28
2023-04-21T10:47:51.402Z,14.53
2023-04-21T10:50:23.696Z,14.58
2023-04-21T10:53:02.430Z,14.97
2023-04-21T10:55:31.710Z,15.03
2023-04-21T10:58:04.360Z,15.04
2023-04-21T11:00:33.822Z,14.10
2023-04-21T11:03:05.978Z,14.59
2023-04-21T11:05:40.472Z,14.48
2023-04-21T11:08:12.482Z,14.72
2023-04-21T11:10:55.721Z,14.95
2023-04-21T11:13:27.073Z,14.97
2023-04-21T11:16:02.567Z,14.88
2023-04-21T11:18:41.301Z,14.90
2023-04-21T11:21:18.084Z,14.89
2023-04-21T11:23:51.998Z,14.82
2023-04-21T11:26:35.266Z,14.78
2023-04-21T11:29:07.401Z,14.89
2023-04-21T11:31:36.515Z,15.25
2023-04-21T11:34:07.905Z,15.53
2023-04-21T11:36:36.897Z,15.78
2023-04-21T11:39:09.954Z,15.47
2023-04-21T11:41:40.807Z,15.87
2023-04-21T11:44:09.524Z,15.87
2023-04-21T11:46:38.660Z,15.81
2023-04-21T11:49:12.622Z,15.73
2023-04-21T11:51:42.872Z,15.74
2023-04-21T11:54:13.680Z,15.43
2023-04-21T11:56:43.662Z,15.59
2023-04-21T11:59:14.243Z,15.67
2023-04-21T12:01:46.560Z,15.89
2023-04-21T12:04:18.049Z,15.99
2023-04-21T12:06:47.652Z,16.11
2023-04-21T12:09:21.506Z,16.36
2023-04-21T12:11:51.320Z,16.38
2023-04-21T12:14:21.447Z,16.74
2023-04-21T12:16:51.311Z,17.22
2023-04-21T12:19:37.338Z,17.54
2023-04-21T12:22:09.634Z,17.57
2023-04-21T12:24:38.298Z,17.61
2023-04-21T12:27:07.769Z,17.80
2023-04-21T12:29:37.523Z,17.96
2023-04-21T12:32:06.318Z,18.05
2023-04-21T12:34:36.400Z,18.35
2023-04-21T12:37:06.073Z,18.55
2023-04-21T12:39:34.966Z,18.69
2023-04-21T12:42:03.227Z,18.89
2023-04-21T12:44:31.661Z,18.95
2023-04-21T12:46:59.941Z,19.34
2023-04-21T12:49:28.395Z,19.37
2023-04-21T12:51:58.142Z,19.58
2023-04-21T12:54:26.360Z,19.83
2023-04-21T12:56:55.314Z,20.02
2023-04-21T12:59:23.571Z,19.84
2023-04-21T13:01:52.190Z,20.06
2023-04-21T13:04:20.745Z,20.12
2023-04-21T13:06:49.212Z,20.58
2023-04-21T13:09:19.462Z,20.44
2023-04-21T13:11:47.759Z,20.67
2023-04-21T13:14:16.894Z,20.55
2023-04-21T13:16:45.508Z,20.61
2023-04-21T13:19:13.817Z,20.64
2023-04-21T13:21:42.215Z,20.84
2023-04-21T13:24:14.348Z,20.54
2023-04-21T13:26:44.262Z,20.93
2023-04-21T13:29:12.477Z,21.00
2023-04-21T13:31:40.976Z,21.21
2023-04-21T13:34:09.308Z,21.04
2023-04-21T13:36:37.643Z,21.38
2023-04-21T13:39:07.502Z,21.43
2023-04-21T13:41:35.782Z,21.27
2023-04-21T13:44:05.395Z,21.42
2023-04-21T13:46:33.786Z,21.58
2023-04-21T13:49:02.289Z,21.10
2023-04-21T13:51:32.284Z,21.14
2023-04-21T13:54:00.633Z,21.17
2023-04-21T13:56:28.934Z,21.25
2023-04-21T13:58:57.753Z,21.28
2023-04-21T14:01:32.457Z,21.61
2023-04-21T14:04:03.251Z,21.88
2023-04-21T14:06:41.617Z,21.61
2023-04-21T14:09:15.375Z,21.60
2023-04-21T14:11:52.129Z,21.75
2023-04-21T14:14:31.453Z,21.81
2023-04-21T14:17:08.566Z,21.94
2023-04-21T14:19:37.297Z,22.04
2023-04-21T14:22:05.595Z,21.69
2023-04-21T14:24:33.973Z,21.76
2023-04-21T14:27:02.287Z,21.52
2023-04-21T14:29:30.595Z,21.68
2023-04-21T14:31:59.511Z,21.87
2023-04-21T14:34:29.157Z,21.99
2023-04-21T14:36:59.049Z,21.93
2023-04-21T14:39:27.314Z,21.60
2023-04-21T14:41:56.012Z,21.13
2023-04-21T14:44:24.253Z,22.15
2023-04-21T14:47:05.723Z,22.25
2023-04-21T14:49:39.953Z,22.36
2023-04-21T14:52:08.280Z,22.43
2023-04-21T14:54:36.581Z,21.50
2023-04-21T14:57:18.735Z,22.62
2023-04-21T14:59:49.818Z,22.71
2023-04-21T15:02:18.540Z,22.13
2023-04-21T15:04:48.532Z,22.13
2023-04-21T15:07:22.872Z,22.32
2023-04-21T15:09:52.457Z,22.24
2023-04-21T15:12:21.061Z,22.54
2023-04-21T15:14:49.401Z,22.61
2023-04-21T15:17:17.733Z,22.29
2023-04-21T15:19:47.305Z,22.54
2023-04-21T15:22:15.643Z,22.71
2023-04-21T15:24:43.901Z,22.82
2023-04-21T15:27:12.276Z,22.63
2023-04-21T15:29:40.524Z,22.78
2023-04-21T15:32:08.834Z,22.83
2023-04-21T15:34:37.167Z,22.92
2023-04-21T15:37:06.809Z,22.96
2023-04-21T15:39:35.197Z,22.93
2023-04-21T15:42:04.417Z,22.92
2023-04-21T15:44:33.950Z,23.18
2023-04-21T15:47:02.463Z,23.09
2023-04-21T15:49:31.153Z,22.94
2023-04-21T15:51:59.475Z,23.14
2023-04-21T15:54:29.081Z,23.14
2023-04-21T15:56:57.611Z,23.08
2023-04-21T15:59:26.279Z,23.04
2023-04-21T16:01:56.762Z,22.95
2023-04-21T16:04:25.419Z,22.68
2023-04-21T16:06:53.868Z,22.82
2023-04-21T16:09:22.782Z,22.99
2023-04-21T16:11:52.461Z,22.92
2023-04-21T16:14:20.857Z,22.64
2023-04-21T16:16:49.174Z,22.64
2023-04-21T16:19:17.422Z,22.62
2023-04-21T16:21:45.723Z,22.46
2023-04-21T16:24:14.040Z,22.37
2023-04-21T16:26:42.455Z,21.94
2023-04-21T16:29:12.043Z,20.80
2023-04-21T16:31:40.381Z,21.98
2023-04-21T16:34:09.377Z,21.86
2023-04-21T16:36:38.083Z,21.99
2023-04-21T16:39:06.756Z,21.97
2023-04-21T16:41:34.997Z,20.73
2023-04-21T16:44:03.352Z,21.91
2023-04-21T16:46:33.022Z,21.01
2023-04-21T16:49:01.488Z,21.54
2023-04-21T16:51:29.979Z,21.36
2023-04-21T16:53:58.230Z,21.59
2023-04-21T16:56:26.530Z,21.84
2023-04-21T16:58:54.846Z,21.87
2023-04-21T17:01:23.092Z,21.83
2023-04-21T17:03:52.815Z,21.84
2023-04-21T17:06:21.851Z,22.00
2023-04-21T17:08:50.123Z,21.93
2023-04-21T17:11:18.359Z,21.99
2023-04-21T17:13:46.606Z,21.93
2023-04-21T17:16:14.928Z,21.72
2023-04-21T17:18:43.155Z,21.56
2023-04-21T17:21:14.744Z,21.76
2023-04-21T17:23:43.736Z,21.64
2023-04-21T17:26:13.256Z,21.62
2023-04-21T17:28:41.986Z,21.72
2023-04-21T17:31:15.546Z,21.74
2023-04-21T17:33:44.437Z,21.91
2023-04-21T17:36:14.133Z,22.11
2023-04-21T17:38:43.177Z,22.29
2023-04-21T17:41:11.660Z,21.78
2023-04-21T17:43:40.014Z,21.93
2023-04-21T17:46:08.401Z,21.66
2023-04-21T17:48:36.777Z,21.78
2023-04-21T17:51:05.448Z,21.40
2023-04-21T17:53:35.088Z,21.22
2023-04-21T17:56:03.498Z,20.94
2023-04-21T17:58:31.788Z,19.91
2023-04-21T18:01:00.352Z,19.37
2023-04-21T18:03:28.965Z,19.58
2023-04-21T18:05:58.469Z,19.14
2023-04-21T18:08:26.873Z,18.74
2023-04-21T18:11:01.637Z,18.72
2023-04-21T18:13:29.890Z,18.47
2023-04-21T18:15:58.992Z,18.36
2023-04-21T18:18:27.386Z,18.19
2023-04-21T18:20:55.771Z,17.48
2023-04-21T18:23:24.066Z,17.45
2023-04-21T18:25:52.458Z,17.38
2023-04-21T18:28:22.086Z,16.39
2023-04-21T18:30:51.261Z,16.72
2023-04-21T18:33:19.687Z,16.52
2023-04-21T18:35:48.326Z,16.23
2023-04-21T18:38:16.583Z,16.13
2023-04-21T18:40:44.924Z,12.79
2023-04-21T18:43:13.333Z,15.78
2023-04-21T18:45:42.980Z,15.68
2023-04-21T18:48:11.253Z,15.56
2023-04-21T18:50:41.041Z,15.58
2023-04-21T18:53:09.810Z,15.36
2023-04-21T18:55:38.428Z,15.15
2023-04-21T18:58:07.239Z,15.05
2023-04-21T19:00:38.808Z,15.22
2023-04-21T19:03:09.602Z,15.29
2023-04-21T19:05:40.459Z,15.07
2023-04-21T19:08:10.783Z,14.95
2023-04-21T19:10:39.518Z,15.08
2023-04-21T19:13:07.773Z,14.86
2023-04-21T19:15:36.712Z,14.89
2023-04-21T19:18:05.567Z,14.87
2023-04-21T19:20:35.777Z,14.80
2023-04-21T19:23:04.111Z,14.46
2023-04-21T19:25:33.267Z,14.25
2023-04-21T19:28:02.250Z,14.10
2023-04-21T19:30:30.702Z,14.17
2023-04-21T19:32:59.023Z,14.02
2023-04-21T19:35:27.909Z,13.82
2023-04-21T19:37:57.604Z,13.59
2023-04-21T19:40:26.984Z,13.59
2023-04-21T19:42:55.693Z,13.63
2023-04-21T19:45:24.030Z,13.49
2023-04-21T19:47:52.685Z,12.93
2023-04-21T19:50:21.302Z,13.35
2023-04-21T19:52:54.803Z,13.36
2023-04-21T19:55:24.434Z,13.34
2023-04-21T19:57:53.051Z,13.30
2023-04-21T20:00:21.632Z,13.19
2023-04-21T20:02:50.084Z,13.09
2023-04-21T20:05:19.719Z,12.65
2023-04-21T20:07:48.802Z,12.96
2023-04-21T20:10:17.783Z,12.94
2023-04-21T20:12:47.383Z,12.80
2023-04-21T20:15:17.017Z,12.75
2023-04-21T20:17:47.550Z,12.63
2023-04-21T20:20:16.331Z,12.59
2023-04-21T20:22:44.672Z,11.06
2023-04-21T20:25:13.497Z,12.46
2023-04-21T20:27:42.162Z,12.40
2023-04-21T20:30:12.412Z,12.34
2023-04-21T20:32:40.672Z,12.51
2023-04-21T20:35:11.756Z,12.46
2023-04-21T20:37:40.401Z,12.41
2023-04-21T20:40:11.629Z,11.62
2023-04-21T20:42:40.441Z,12.30
2023-04-21T20:45:11.022Z,12.09
2023-04-21T20:47:39.420Z,12.25
2023-04-21T20:50:09.075Z,12.04
2023-04-21T20:52:37.714Z,11.95
2023-04-21T20:55:07.602Z,11.84
2023-04-21T20:57:36.256Z,11.77
2023-04-21T21:00:07.073Z,11.69
2023-04-21T21:02:36.980Z,10.72
2023-04-21T21:05:06.167Z,10.59
2023-04-21T21:07:34.622Z,11.52
2023-04-21T21:10:03.525Z,11.53
2023-04-21T21:12:31.753Z,11.54
2023-04-21T21:14:59.944Z,11.26
2023-04-21T21:17:28.235Z,11.46
2023-04-21T21:19:58.704Z,11.37
2023-04-21T21:22:27.007Z,11.34
2023-04-21T21:24:55.215Z,11.25
2023-04-21T21:27:24.390Z,11.33
2023-04-21T21:29:52.547Z,11.17
2023-04-21T21:32:20.955Z,11.25
2023-04-21T21:34:49.665Z,11.15
2023-04-21T21:37:19.271Z,11.10
2023-04-21T21:39:47.431Z,10.93
2023-04-21T21:42:15.644Z,10.82
2023-04-21T21:44:43.949Z,10.90
2023-04-21T21:47:12.189Z,10.87
2023-04-21T21:49:40.708Z,11.07
2023-04-21T21:52:09.078Z,10.85
2023-04-21T21:54:39.015Z,11.09
2023-04-21T21:57:07.308Z,10.90
2023-04-21T21:59:35.808Z,10.82
2023-04-21T22:02:04.497Z,10.91
2023-04-21T22:04:33.114Z,10.94
2023-04-21T22:07:13.369Z,11.01
2023-04-21T22:09:46.496Z,10.92
2023-04-21T22:12:14.735Z,10.87
2023-04-21T22:14:42.977Z,10.73
2023-04-21T22:17:11.888Z,10.80
2023-04-21T22:19:41.723Z,10.82
2023-04-21T22:22:10.595Z,10.90
2023-04-21T22:24:38.937Z,10.72
2023-04-21T22:27:08.596Z,10.87
2023-04-21T22:29:37.930Z,10.77
2023-04-21T22:32:06.808Z,10.67
2023-04-21T22:34:35.024Z,10.54
2023-04-21T22:37:03.258Z,10.50
2023-04-21T22:39:31.543Z,10.49
2023-04-21T22:41:59.803Z,10.26
2023-04-21T22:44:29.443Z,10.41
2023-04-21T22:46:57.698Z,10.15
2023-04-21T22:49:26.149Z,10.49
2023-04-21T22:51:54.437Z,10.52
2023-04-21T22:54:22.688Z,10.56
2023-04-21T22:56:50.950Z,10.63
2023-04-21T22:59:19.195Z,10.42
2023-04-21T23:01:53.397Z,10.45
2023-04-21T23:04:21.832Z,10.50
2023-04-21T23:06:50.081Z,10.41
2023-04-21T23:09:18.260Z,10.25
2023-04-21T23:11:46.460Z,10.17
2023-04-21T23:14:14.738Z,10.11
2023-04-21T23:16:43.295Z,9.93
2023-04-21T23:19:12.906Z,10.01
2023-04-21T23:21:41.211Z,9.97
2023-04-21T23:24:09.480Z,9.87
2023-04-21T23:26:37.680Z,9.89
2023-04-21T23:29:06.056Z,9.74
2023-04-21T23:31:34.427Z,9.63
2023-04-21T23:34:02.710Z,9.57
2023-04-21T23:36:32.903Z,9.59
2023-04-21T23:39:01.057Z,9.63
2023-04-21T23:41:29.297Z,9.43
2023-04-21T23:43:58.379Z,9.32
2023-04-21T23:46:27.033Z,9.46
2023-04-21T23:48:55.282Z,9.45
2023-04-21T23:51:23.684Z,9.42
2023-04-21T23:53:53.400Z,9.60
2023-04-21T23:56:22.158Z,9.73
2023-04-21T23:58:50.356Z,9.72
